createdAt,value
2023-02-22T00:00:42.750Z,74.38
2023-02-22T00:03:12.605Z,73.82
2023-02-22T00:05:45.090Z,74.07
2023-02-22T00:08:11.559Z,74.69
2023-02-22T00:10:38.476Z,74.29
2023-02-22T00:13:07.332Z,74.88
2023-02-22T00:15:34.338Z,74.55
2023-02-22T00:18:01.396Z,74.81
2023-02-22T00:20:28.602Z,75.10
2023-02-22T00:22:55.466Z,74.61
2023-02-22T00:25:25.667Z,74.50
2023-02-22T00:27:52.983Z,75.16
2023-02-22T00:30:26.948Z,75.11
2023-02-22T00:32:55.857Z,74.78
2023-02-22T00:35:25.046Z,75.35
2023-02-22T00:37:54.336Z,75.96
2023-02-22T00:40:30.575Z,75.47
2023-02-22T00:42:58.598Z,76.13
2023-02-22T00:45:27.329Z,76.08
2023-02-22T00:47:57.597Z,76.68
2023-02-22T00:50:26.776Z,76.54
2023-02-22T00:52:54.118Z,77.47
2023-02-22T00:55:24.315Z,77.31
2023-02-22T00:57:51.366Z,76.74
2023-02-22T01:00:21.208Z,77.22
2023-02-22T01:02:51.119Z,76.79
2023-02-22T01:05:21.159Z,77.57
2023-02-22T01:07:49.639Z,77.28
2023-02-22T01:10:19.424Z,77.18
2023-02-22T01:12:47.816Z,77.36
2023-02-22T01:15:16.271Z,77.40
2023-02-22T01:17:43.813Z,77.52
2023-02-22T01:20:14.261Z,77.55
2023-02-22T01:22:42.183Z,77.29
2023-02-22T01:25:11.260Z,77.25
2023-02-22T01:27:38.519Z,77.00
2023-02-22T01:30:09.087Z,77.29
2023-02-22T01:32:36.342Z,77.60
2023-02-22T01:35:05.016Z,77.41
2023-02-22T01:37:32.377Z,77.11
2023-02-22T01:39:58.977Z,77.12
2023-02-22T01:42:26.438Z,76.83
2023-02-22T01:45:30.177Z,77.24
2023-02-22T01:48:09.461Z,76.58
2023-02-22T01:50:44.339Z,77.35
2023-02-22T01:53:14.165Z,77.07
2023-02-22T01:55:40.857Z,77.20
2023-02-22T01:58:08.799Z,76.88
2023-02-22T02:00:35.443Z,76.40
2023-02-22T02:03:08.675Z,76.56
2023-02-22T02:05:35.907Z,76.90
2023-02-22T02:08:14.504Z,76.92
2023-02-22T02:10:41.919Z,76.99
2023-02-22T02:13:10.098Z,76.48
2023-02-22T02:15:37.165Z,76.83
2023-02-22T02:18:07.656Z,77.37
2023-02-22T02:21:04.725Z,77.05
2023-02-22T02:23:56.280Z,76.35
2023-02-22T02:26:53.700Z,76.68
2023-02-22T02:29:55.452Z,76.62
2023-02-22T02:32:35.718Z,76.26
2023-02-22T02:35:07.601Z,76.27
2023-02-22T02:38:06.229Z,76.32
2023-02-22T02:40:58.621Z,76.00
2023-02-22T02:43:35.277Z,76.40
2023-02-22T02:46:06.264Z,76.21
2023-02-22T02:48:35.453Z,75.73
2023-02-22T02:51:05.669Z,75.91
2023-02-22T02:53:35.210Z,75.78
2023-02-22T02:56:02.370Z,76.14
2023-02-22T02:58:29.616Z,75.70
2023-02-22T03:01:00.201Z,76.18
2023-02-22T03:04:12.089Z,76.46
2023-02-22T03:06:53.614Z,76.23
2023-02-22T03:09:27.620Z,76.84
2023-02-22T03:12:15.160Z,77.08
2023-02-22T03:15:14.116Z,77.33
2023-02-22T03:17:59.938Z,78.51
2023-02-22T03:20:35.929Z,79.20
2023-02-22T03:23:12.093Z,78.38
2023-02-22T03:25:43.731Z,79.14
2023-02-22T03:28:11.894Z,79.07
2023-02-22T03:30:42.816Z,79.55
2023-02-22T03:33:28.018Z,79.95
2023-02-22T03:35:57.111Z,80.37
2023-02-22T03:38:26.925Z,81.65
2023-02-22T03:40:54.576Z,82.06
2023-02-22T03:43:28.064Z,81.95
2023-02-22T03:45:54.908Z,82.72
2023-02-22T03:48:36.854Z,83.72
2023-02-22T03:51:04.536Z,83.36
2023-02-22T03:53:32.943Z,82.92
2023-02-22T03:56:00.348Z,82.50
2023-02-22T03:58:30.955Z,82.73
2023-02-22T04:00:57.604Z,83.36
2023-02-22T04:03:24.060Z,83.74
2023-02-22T04:05:50.699Z,84.14
2023-02-22T04:08:17.360Z,84.36
2023-02-22T04:10:43.886Z,83.29
2023-02-22T04:13:10.715Z,83.89
2023-02-22T04:15:37.365Z,84.40
2023-02-22T04:18:04.093Z,84.84
2023-02-22T04:20:31.693Z,85.68
2023-02-22T04:22:58.178Z,85.65
2023-02-22T04:25:24.718Z,85.21
2023-02-22T04:27:51.208Z,85.17
2023-02-22T04:30:19.236Z,85.38
2023-02-22T04:32:46.163Z,84.73
2023-02-22T04:35:12.732Z,85.85
2023-02-22T04:37:39.254Z,85.31
2023-02-22T04:40:09.124Z,85.34
2023-02-22T04:42:36.137Z,84.94
2023-02-22T04:45:04.090Z,85.64
2023-02-22T04:47:30.616Z,85.13
2023-02-22T04:49:57.210Z,84.85
2023-02-22T04:52:23.750Z,84.50
2023-02-22T04:54:50.836Z,84.50
2023-02-22T04:57:17.253Z,84.27
2023-02-22T04:59:44.308Z,84.02
2023-02-22T05:02:10.857Z,83.96
2023-02-22T05:04:40.546Z,84.78
2023-02-22T05:07:07.056Z,84.91
2023-02-22T05:09:34.200Z,83.99
2023-02-22T05:12:00.678Z,84.58
2023-02-22T05:14:27.606Z,84.84
2023-02-22T05:16:56.092Z,84.11
2023-02-22T05:19:22.683Z,83.74
2023-02-22T05:21:49.290Z,83.93
2023-02-22T05:24:16.057Z,84.47
2023-02-22T05:26:46.235Z,84.07
2023-02-22T05:29:13.224Z,83.78
2023-02-22T05:31:41.774Z,83.86
2023-02-22T05:34:08.327Z,82.84
2023-02-22T05:36:34.857Z,83.45
2023-02-22T05:39:01.732Z,83.46
2023-02-22T05:41:28.408Z,82.82
2023-02-22T05:43:54.885Z,83.79
2023-02-22T05:46:21.534Z,83.63
2023-02-22T05:48:48.056Z,83.81
2023-02-22T05:51:14.640Z,83.45
2023-02-22T05:53:42.547Z,83.66
2023-02-22T05:56:09.030Z,83.57
2023-02-22T05:58:35.922Z,83.36
2023-02-22T06:01:03.420Z,83.62
2023-02-22T06:03:30.012Z,83.82
2023-02-22T06:05:56.447Z,83.72
2023-02-22T06:08:22.942Z,83.46
2023-02-22T06:10:49.425Z,82.96
2023-02-22T06:13:15.952Z,84.05
2023-02-22T06:15:42.379Z,83.04
2023-02-22T06:18:08.849Z,83.87
2023-02-22T06:20:35.566Z,83.29
2023-02-22T06:23:02.029Z,82.91
2023-02-22T06:25:32.973Z,83.47
2023-02-22T06:28:00.768Z,83.02
2023-02-22T06:30:28.136Z,82.71
2023-02-22T06:32:54.655Z,83.18
2023-02-22T06:35:21.765Z,83.07
2023-02-22T06:37:48.352Z,82.44
2023-02-22T06:40:15.782Z,82.54
2023-02-22T06:42:42.345Z,82.79
2023-02-22T06:45:09.530Z,82.92
2023-02-22T06:47:40.954Z,82.13
2023-02-22T06:50:10.293Z,82.39
2023-02-22T06:52:42.528Z,82.73
2023-02-22T06:55:08.966Z,82.93
2023-02-22T06:57:35.478Z,82.25
2023-02-22T07:00:02.047Z,82.21
2023-02-22T07:02:28.579Z,82.51
2023-02-22T07:04:54.996Z,81.42
2023-02-22T07:07:23.424Z,81.67
2023-02-22T07:09:49.842Z,81.56
2023-02-22T07:12:16.316Z,81.37
2023-02-22T07:14:42.906Z,80.50
2023-02-22T07:17:09.434Z,80.30
2023-02-22T07:19:35.975Z,79.79
2023-02-22T07:22:02.452Z,79.14
2023-02-22T07:24:28.905Z,78.92
2023-02-22T07:26:55.674Z,78.39
2023-02-22T07:29:25.353Z,78.60
2023-02-22T07:31:51.918Z,78.70
2023-02-22T07:34:18.572Z,78.41
2023-02-22T07:36:45.252Z,77.59
2023-02-22T07:39:11.733Z,77.75
2023-02-22T07:41:38.297Z,77.49
2023-02-22T07:44:05.018Z,77.06
2023-02-22T07:46:32.026Z,76.67
2023-02-22T07:48:58.554Z,75.47
2023-02-22T07:51:25.203Z,75.92
2023-02-22T07:53:51.754Z,75.11
2023-02-22T07:56:18.271Z,75.53
2023-02-22T07:58:45.337Z,75.12
2023-02-22T08:01:11.874Z,75.73
2023-02-22T08:03:38.585Z,75.71
2023-02-22T08:06:07.022Z,75.35
2023-02-22T08:08:34.438Z,74.78
2023-02-22T08:11:01.013Z,74.07
2023-02-22T08:13:28.200Z,73.07
2023-02-22T08:15:55.072Z,73.00
2023-02-22T08:18:23.041Z,73.14
2023-02-22T08:20:52.035Z,72.55
2023-02-22T08:23:20.219Z,71.58
2023-02-22T08:25:46.756Z,71.52
2023-02-22T08:28:15.907Z,71.11
2023-02-22T08:30:43.794Z,71.53
2023-02-22T08:33:14.308Z,71.78
2023-02-22T08:35:41.388Z,71.59
2023-02-22T08:38:14.735Z,70.47
2023-02-22T08:40:41.208Z,70.34
2023-02-22T08:43:07.659Z,69.64
2023-02-22T08:45:34.151Z,69.63
2023-02-22T08:48:00.660Z,69.61
2023-02-22T08:50:29.779Z,70.39
2023-02-22T08:53:01.480Z,71.20
2023-02-22T08:55:32.072Z,69.50
2023-02-22T08:58:01.207Z,68.79
2023-02-22T09:00:29.535Z,69.46
2023-02-22T09:02:56.126Z,69.02
2023-02-22T09:05:22.630Z,66.71
2023-02-22T09:07:49.187Z,66.79
2023-02-22T09:10:19.971Z,65.80
2023-02-22T09:12:46.442Z,65.32
2023-02-22T09:15:12.928Z,64.16
2023-02-22T09:17:39.675Z,63.32
2023-02-22T09:20:07.587Z,64.11
2023-02-22T09:22:34.418Z,65.11
2023-02-22T09:25:11.223Z,64.05
2023-02-22T09:27:43.500Z,62.79
2023-02-22T09:30:31.940Z,62.40
2023-02-22T09:33:05.487Z,62.55
2023-02-22T09:35:35.990Z,62.84
2023-02-22T09:38:04.489Z,61.84
2023-02-22T09:40:33.076Z,62.85
2023-02-22T09:43:37.898Z,62.88
2023-02-22T09:46:20.213Z,60.91
2023-02-22T09:49:05.186Z,61.77
2023-02-22T09:51:41.207Z,62.51
2023-02-22T09:54:17.547Z,60.75
2023-02-22T09:56:46.865Z,61.68
2023-02-22T09:59:18.743Z,60.75
2023-02-22T10:01:48.855Z,60.49
2023-02-22T10:04:34.451Z,59.43
2023-02-22T10:07:05.898Z,58.43
2023-02-22T10:09:37.622Z,58.79
2023-02-22T10:12:25.527Z,60.53
2023-02-22T10:15:08.153Z,58.27
2023-02-22T10:17:47.549Z,55.91
2023-02-22T10:20:31.994Z,52.94
2023-02-22T10:23:14.144Z,50.92
2023-02-22T10:25:42.210Z,49.65
2023-02-22T10:28:25.067Z,50.28
2023-02-22T10:30:56.673Z,48.84
2023-02-22T10:33:51.168Z,51.90
2023-02-22T10:36:22.859Z,52.72
2023-02-22T10:38:55.513Z,52.23
2023-02-22T10:41:33.446Z,54.25
2023-02-22T10:44:01.773Z,54.72
2023-02-22T10:46:30.702Z,55.21
2023-02-22T10:49:02.747Z,54.15
2023-02-22T10:51:29.337Z,54.91
2023-02-22T10:54:27.076Z,54.70
2023-02-22T10:56:55.742Z,53.16
2023-02-22T10:59:32.744Z,54.93
2023-02-22T11:02:00.910Z,55.20
2023-02-22T11:04:27.866Z,55.52
2023-02-22T11:07:21.926Z,55.61
2023-02-22T11:09:54.544Z,56.01
2023-02-22T11:12:28.701Z,54.19
2023-02-22T11:14:56.174Z,55.19
2023-02-22T11:17:30.270Z,54.38
2023-02-22T11:19:57.485Z,53.70
2023-02-22T11:22:37.827Z,54.01
2023-02-22T11:25:07.483Z,53.54
2023-02-22T11:27:43.909Z,53.53
2023-02-22T11:30:22.145Z,53.34
2023-02-22T11:33:00.949Z,54.89
2023-02-22T11:35:58.241Z,54.31
2023-02-22T11:38:28.695Z,52.98
2023-02-22T11:41:15.169Z,52.32
2023-02-22T11:43:47.424Z,51.91
2023-02-22T11:46:18.307Z,51.19
2023-02-22T11:48:59.726Z,50.77
2023-02-22T11:51:39.125Z,50.46
2023-02-22T11:54:19.336Z,50.50
2023-02-22T11:56:48.799Z,49.97
2023-02-22T11:59:38.792Z,52.16
2023-02-22T12:02:21.667Z,52.00
2023-02-22T12:05:12.264Z,52.45
2023-02-22T12:07:48.594Z,52.20
2023-02-22T12:10:29.356Z,51.72
2023-02-22T12:13:20.737Z,53.50
2023-02-22T12:16:11.801Z,52.41
2023-02-22T12:19:16.261Z,51.92
2023-02-22T12:21:45.156Z,53.10
2023-02-22T12:24:16.384Z,53.67
2023-02-22T12:26:53.775Z,53.91
2023-02-22T12:29:27.013Z,52.93
2023-02-22T12:32:05.761Z,53.25
2023-02-22T12:34:43.222Z,51.17
2023-02-22T12:37:29.316Z,51.16
2023-02-22T12:40:17.031Z,50.68
2023-02-22T12:42:43.443Z,50.94
2023-02-22T12:45:20.607Z,50.89
2023-02-22T12:47:55.744Z,51.54
2023-02-22T12:50:26.314Z,52.45
2023-02-22T12:53:13.398Z,51.28
2023-02-22T12:55:47.979Z,51.82
2023-02-22T12:58:23.086Z,52.71
2023-02-22T13:01:02.012Z,51.90
2023-02-22T13:03:40.063Z,50.75
2023-02-22T13:06:36.675Z,50.94
2023-02-22T13:09:26.583Z,51.98
2023-02-22T13:12:20.388Z,52.69
2023-02-22T13:15:04.920Z,52.29
2023-02-22T13:17:49.991Z,53.33
2023-02-22T13:20:26.771Z,52.09
2023-02-22T13:23:08.695Z,53.19
2023-02-22T13:25:57.958Z,53.49
2023-02-22T13:28:33.672Z,53.52
2023-02-22T13:31:36.798Z,52.20
2023-02-22T13:34:13.841Z,53.12
2023-02-22T13:36:58.133Z,52.98
2023-02-22T13:39:54.629Z,52.83
2023-02-22T13:42:36.447Z,51.81
2023-02-22T13:45:21.342Z,50.71
2023-02-22T13:48:06.032Z,50.50
2023-02-22T13:50:39.381Z,52.12
2023-02-22T13:53:12.635Z,52.20
2023-02-22T13:55:41.453Z,52.88
2023-02-22T13:58:10.717Z,53.75
2023-02-22T14:00:42.176Z,53.77
2023-02-22T14:03:14.812Z,52.94
2023-02-22T14:05:41.599Z,53.15
2023-02-22T14:08:28.878Z,54.24
2023-02-22T14:11:02.209Z,53.33
2023-02-22T14:13:31.101Z,52.64
2023-02-22T14:16:00.713Z,53.19
2023-02-22T14:18:43.112Z,53.95
2023-02-22T14:21:14.369Z,53.39
2023-02-22T14:23:41.732Z,52.76
2023-02-22T14:26:13.918Z,53.47
2023-02-22T14:28:54.333Z,54.75
2023-02-22T14:31:37.288Z,54.64
2023-02-22T14:34:07.384Z,53.46
2023-02-22T14:36:56.221Z,54.69
2023-02-22T14:39:33.146Z,54.47
2023-02-22T14:42:17.084Z,55.18
2023-02-22T14:44:53.473Z,55.89
2023-02-22T14:47:28.220Z,55.17
2023-02-22T14:50:02.238Z,55.37
2023-02-22T14:52:30.968Z,57.81
2023-02-22T14:55:16.081Z,60.84
2023-02-22T14:57:59.152Z,62.54
2023-02-22T15:00:32.705Z,62.47
2023-02-22T15:03:00.622Z,63.79
2023-02-22T15:05:30.989Z,65.48
2023-02-22T15:08:00.653Z,64.31
2023-02-22T15:10:48.271Z,64.71
2023-02-22T15:13:14.709Z,64.63
2023-02-22T15:15:49.181Z,64.01
2023-02-22T15:18:23.520Z,65.49
2023-02-22T15:20:56.057Z,65.58
2023-02-22T15:23:26.225Z,65.67
2023-02-22T15:25:52.776Z,65.68
2023-02-22T15:28:19.535Z,66.18
2023-02-22T15:30:46.193Z,65.71
2023-02-22T15:33:24.198Z,66.68
2023-02-22T15:35:57.711Z,66.82
2023-02-22T15:38:29.309Z,66.87
2023-02-22T15:41:02.614Z,67.52
2023-02-22T15:43:29.947Z,67.46
2023-02-22T15:45:58.543Z,68.40
2023-02-22T15:48:28.677Z,68.46
2023-02-22T15:51:09.184Z,68.94
2023-02-22T15:53:44.352Z,69.56
2023-02-22T15:56:15.039Z,69.82
2023-02-22T15:58:42.350Z,70.27
2023-02-22T16:01:12.422Z,70.58
2023-02-22T16:03:47.255Z,70.13
2023-02-22T16:06:36.419Z,70.92
2023-02-22T16:09:18.182Z,71.11
2023-02-22T16:11:46.238Z,71.77
2023-02-22T16:14:27.264Z,72.19
2023-02-22T16:17:15.642Z,73.08
2023-02-22T16:19:44.953Z,73.28
2023-02-22T16:22:41.211Z,73.58
2023-02-22T16:25:21.501Z,74.10
2023-02-22T16:27:49.105Z,74.93
2023-02-22T16:30:24.962Z,74.90
2023-02-22T16:32:54.085Z,75.09
2023-02-22T16:35:20.631Z,76.03
2023-02-22T16:37:50.006Z,76.07
2023-02-22T16:40:27.496Z,76.61
2023-02-22T16:42:54.264Z,76.94
2023-02-22T16:45:21.723Z,77.31
2023-02-22T16:47:51.607Z,77.42
2023-02-22T16:50:18.105Z,77.50
2023-02-22T16:52:44.598Z,77.83
2023-02-22T16:55:13.391Z,78.04
2023-02-22T16:57:42.251Z,78.12
2023-02-22T17:00:16.612Z,78.20
2023-02-22T17:02:44.926Z,78.16
2023-02-22T17:05:15.715Z,79.02
2023-02-22T17:07:42.505Z,78.88
2023-02-22T17:10:15.828Z,79.23
2023-02-22T17:12:45.158Z,79.25
2023-02-22T17:15:24.693Z,79.07
2023-02-22T17:17:52.411Z,79.81
2023-02-22T17:20:29.882Z,79.82
2023-02-22T17:22:58.133Z,79.86
2023-02-22T17:25:46.686Z,79.63
2023-02-22T17:28:13.209Z,79.40
2023-02-22T17:30:39.912Z,79.96
2023-02-22T17:33:07.929Z,80.24
2023-02-22T17:35:37.247Z,79.54
2023-02-22T17:38:08.153Z,79.31
2023-02-22T17:40:36.330Z,78.78
2023-02-22T17:43:03.513Z,79.23
2023-02-22T17:45:30.208Z,78.70
2023-02-22T17:47:59.005Z,78.63
2023-02-22T17:50:27.146Z,78.30
2023-02-22T17:52:54.167Z,78.29
2023-02-22T17:55:21.366Z,78.45
2023-02-22T17:57:58.269Z,78.29
2023-02-22T18:00:33.596Z,78.53
2023-02-22T18:03:03.059Z,77.95
2023-02-22T18:05:30.452Z,77.93
2023-02-22T18:07:56.916Z,78.32
2023-02-22T18:10:23.429Z,78.46
2023-02-22T18:12:50.176Z,77.81
2023-02-22T18:15:19.462Z,77.45
2023-02-22T18:17:46.744Z,77.33
2023-02-22T18:20:14.555Z,76.95
2023-02-22T18:22:43.340Z,76.86
2023-02-22T18:25:14.742Z,76.60
2023-02-22T18:27:43.290Z,76.10
2023-02-22T18:30:12.024Z,76.66
2023-02-22T18:32:39.246Z,76.15
2023-02-22T18:35:06.549Z,76.63
2023-02-22T18:37:33.570Z,76.17
2023-02-22T18:40:01.422Z,76.03
2023-02-22T18:42:28.367Z,76.06
2023-02-22T18:45:00.594Z,76.44
2023-02-22T18:47:27.518Z,76.31
2023-02-22T18:49:54.195Z,76.27
2023-02-22T18:52:21.056Z,75.76
2023-02-22T18:54:48.824Z,76.90
2023-02-22T18:57:16.144Z,76.40
2023-02-22T18:59:43.320Z,76.61
2023-02-22T19:02:13.974Z,76.14
2023-02-22T19:04:40.869Z,76.62
2023-02-22T19:07:07.325Z,76.79
2023-02-22T19:09:33.816Z,76.69
2023-02-22T19:12:00.263Z,76.77
2023-02-22T19:14:26.854Z,76.84
2023-02-22T19:16:56.504Z,76.87
2023-02-22T19:19:26.110Z,76.43
2023-02-22T19:21:56.277Z,76.88
2023-02-22T19:24:23.102Z,77.63
2023-02-22T19:26:57.185Z,77.21
2023-02-22T19:29:23.844Z,77.96
2023-02-22T19:31:51.617Z,77.51
2023-02-22T19:34:21.826Z,79.22
2023-02-22T19:36:48.865Z,79.06
2023-02-22T19:39:18.897Z,79.08
2023-02-22T19:41:46.759Z,78.49
2023-02-22T19:44:13.542Z,79.73
2023-02-22T19:46:40.270Z,79.83
2023-02-22T19:49:07.621Z,79.43
2023-02-22T19:51:34.450Z,80.98
2023-02-22T19:54:06.229Z,80.68
2023-02-22T19:56:35.208Z,81.26
2023-02-22T19:59:09.471Z,81.15
2023-02-22T20:01:36.805Z,81.42
2023-02-22T20:04:06.348Z,81.60
2023-02-22T20:06:41.949Z,82.20
2023-02-22T20:09:11.468Z,81.71
2023-02-22T20:11:38.277Z,82.04
2023-02-22T20:14:08.125Z,81.56
2023-02-22T20:16:35.223Z,82.25
2023-02-22T20:19:01.827Z,82.44
2023-02-22T20:21:33.175Z,82.41
2023-02-22T20:24:06.732Z,82.36
2023-02-22T20:26:35.316Z,83.42
2023-02-22T20:29:04.015Z,83.53
2023-02-22T20:31:31.589Z,83.66
2023-02-22T20:34:00.091Z,84.51
2023-02-22T20:36:28.261Z,83.32
2023-02-22T20:38:57.620Z,84.40
2023-02-22T20:41:28.848Z,84.23
2023-02-22T20:43:56.254Z,83.90
2023-02-22T20:46:24.006Z,84.54
2023-02-22T20:48:55.337Z,84.15
2023-02-22T20:51:21.911Z,84.40
2023-02-22T20:53:48.894Z,85.05
2023-02-22T20:56:18.003Z,85.49
2023-02-22T20:58:44.581Z,84.49
2023-02-22T21:01:12.686Z,85.26
2023-02-22T21:03:40.734Z,84.83
2023-02-22T21:06:07.744Z,85.75
2023-02-22T21:08:34.175Z,84.83
2023-02-22T21:11:01.056Z,85.36
2023-02-22T21:13:27.632Z,85.55
2023-02-22T21:15:54.168Z,86.33
2023-02-22T21:18:22.516Z,85.92
2023-02-22T21:20:49.832Z,85.92
2023-02-22T21:23:16.419Z,85.67
2023-02-22T21:25:53.086Z,86.09
2023-02-22T21:28:19.994Z,86.71
2023-02-22T21:30:47.356Z,86.78
2023-02-22T21:33:17.240Z,86.48
2023-02-22T21:35:46.925Z,86.72
2023-02-22T21:38:14.499Z,86.34
2023-02-22T21:40:41.736Z,87.59
2023-02-22T21:43:10.588Z,87.48
2023-02-22T21:45:37.704Z,86.58
2023-02-22T21:48:04.891Z,87.28
2023-02-22T21:50:31.862Z,86.61
2023-02-22T21:52:59.052Z,86.60
2023-02-22T21:55:26.457Z,86.69
2023-02-22T21:57:52.997Z,86.77
2023-02-22T22:00:29.312Z,87.54
2023-02-22T22:03:14.636Z,86.52
2023-02-22T22:05:45.164Z,86.46
2023-02-22T22:08:19.562Z,86.44
2023-02-22T22:10:51.233Z,86.79
2023-02-22T22:13:17.812Z,87.40
2023-02-22T22:15:44.250Z,86.79
2023-02-22T22:18:11.661Z,86.83
2023-02-22T22:20:38.904Z,86.52
2023-02-22T22:23:06.836Z,87.22
2023-02-22T22:25:38.038Z,87.42
2023-02-22T22:28:07.529Z,86.81
2023-02-22T22:30:38.010Z,87.04
2023-02-22T22:33:05.627Z,87.07
2023-02-22T22:35:33.486Z,87.95
2023-02-22T22:38:00.944Z,87.28
2023-02-22T22:40:28.013Z,87.95
2023-02-22T22:42:54.503Z,87.94
2023-02-22T22:45:21.093Z,87.80
2023-02-22T22:47:48.264Z,87.32
2023-02-22T22:50:18.734Z,88.37
2023-02-22T22:52:46.063Z,87.74
2023-02-22T22:55:12.562Z,87.57
2023-02-22T22:57:39.912Z,87.69
2023-02-22T23:00:30.308Z,88.42
2023-02-22T23:02:57.259Z,88.60
2023-02-22T23:05:28.246Z,88.63
2023-02-22T23:07:56.320Z,89.09
2023-02-22T23:10:27.088Z,89.32
2023-02-22T23:12:56.156Z,89.60
2023-02-22T23:15:24.625Z,89.01
2023-02-22T23:17:56.009Z,90.09
2023-02-22T23:20:26.158Z,89.83
2023-02-22T23:22:54.187Z,89.87
2023-02-22T23:25:21.587Z,88.82
2023-02-22T23:27:49.385Z,89.37
2023-02-22T23:30:18.635Z,89.97
2023-02-22T23:32:46.644Z,89.60
2023-02-22T23:35:14.930Z,89.56
2023-02-22T23:37:42.345Z,89.23
2023-02-22T23:40:17.333Z,89.64
2023-02-22T23:42:54.623Z,89.72
2023-02-22T23:45:24.610Z,89.59
2023-02-22T23:47:56.406Z,89.91
2023-02-22T23:50:28.986Z,89.65
2023-02-22T23:52:58.063Z,89.22
2023-02-22T23:55:31.395Z,90.09
2023-02-22T23:57:59.442Z,89.46
